createdAt,value
2022-09-14T00:02:00.614Z,14.82
2022-09-14T00:07:07.624Z,14.65
2022-09-14T00:12:12.436Z,14.49
2022-09-14T00:17:19.604Z,14.34
2022-09-14T00:22:23.234Z,14.18
2022-09-14T00:27:26.405Z,14.06
2022-09-14T00:32:29.541Z,13.98
2022-09-14T00:37:33.048Z,13.94
2022-09-14T00:42:37.388Z,13.92
2022-09-14T00:47:41.198Z,13.92
2022-09-14T00:52:46.972Z,13.98
2022-09-14T00:57:52.697Z,14.06
2022-09-14T01:02:56.690Z,14.10
2022-09-14T01:07:59.985Z,14.09
2022-09-14T01:13:23.214Z,14.07
2022-09-14T01:18:40.665Z,14.04
2022-09-14T01:24:06.505Z,14.04
2022-09-14T01:29:23.959Z,14.07
2022-09-14T01:34:44.821Z,14.10
2022-09-14T01:39:55.311Z,14.14
2022-09-14T01:45:04.536Z,14.14
2022-09-14T01:50:28.039Z,14.22
2022-09-14T01:55:42.633Z,14.11
2022-09-14T02:00:47.140Z,14.07
2022-09-14T02:06:02.960Z,14.03
2022-09-14T02:11:06.609Z,13.98
2022-09-14T02:16:10.110Z,13.91
2022-09-14T02:21:26.660Z,13.83
2022-09-14T02:26:32.141Z,13.76
2022-09-14T02:31:47.493Z,13.72
2022-09-14T02:37:09.179Z,13.69
2022-09-14T02:42:37.273Z,13.70
2022-09-14T02:47:43.421Z,13.70
2022-09-14T02:52:58.354Z,13.65
2022-09-14T02:58:07.750Z,13.61
2022-09-14T03:03:12.689Z,13.57
2022-09-14T03:08:16.100Z,13.54
2022-09-14T03:13:19.374Z,13.51
2022-09-14T03:18:23.466Z,13.47
2022-09-14T03:23:30.145Z,13.43
2022-09-14T03:28:33.866Z,13.40
2022-09-14T03:33:37.376Z,13.39
2022-09-14T03:38:48.922Z,13.39
2022-09-14T03:43:53.666Z,13.37
2022-09-14T03:49:01.549Z,13.28
2022-09-14T03:54:07.479Z,13.16
2022-09-14T03:59:10.749Z,13.06
2022-09-14T04:04:14.130Z,13.02
2022-09-14T04:09:19.594Z,12.98
2022-09-14T04:14:23.953Z,12.92
2022-09-14T04:19:27.484Z,12.91
2022-09-14T04:24:31.151Z,12.91
2022-09-14T04:29:34.612Z,12.91
2022-09-14T04:34:40.026Z,12.91
2022-09-14T04:39:43.322Z,12.91
2022-09-14T04:44:47.253Z,12.94
2022-09-14T04:49:50.481Z,12.99
2022-09-14T04:54:53.704Z,13.09
2022-09-14T04:59:56.955Z,13.18
2022-09-14T05:05:00.111Z,13.28
2022-09-14T05:10:03.443Z,13.39
2022-09-14T05:15:07.416Z,13.50
2022-09-14T05:20:10.633Z,13.64
2022-09-14T05:25:13.981Z,13.82
2022-09-14T05:30:17.131Z,13.99
2022-09-14T05:35:20.958Z,14.13
2022-09-14T05:40:24.269Z,14.30
2022-09-14T05:45:27.510Z,14.47
2022-09-14T05:50:32.979Z,14.64
2022-09-14T05:55:36.901Z,14.79
2022-09-14T06:00:40.127Z,14.98
2022-09-14T06:05:43.319Z,15.16
2022-09-14T06:10:46.747Z,15.32
2022-09-14T06:15:50.579Z,15.54
2022-09-14T06:20:53.752Z,15.76
2022-09-14T06:25:58.332Z,15.98
2022-09-14T06:31:07.897Z,16.21
2022-09-14T06:36:14.138Z,16.45
2022-09-14T06:41:23.923Z,16.71
2022-09-14T06:46:30.097Z,17.00
2022-09-14T06:51:39.165Z,17.17
2022-09-14T06:56:44.501Z,17.30
2022-09-14T07:01:50.530Z,17.39
2022-09-14T07:06:53.711Z,17.43
2022-09-14T07:11:56.812Z,17.43
2022-09-14T07:17:00.083Z,17.56
2022-09-14T07:22:03.384Z,17.66
2022-09-14T07:27:07.301Z,17.77
2022-09-14T07:32:10.495Z,17.96
2022-09-14T07:37:14.010Z,18.18
2022-09-14T07:42:17.316Z,18.32
2022-09-14T07:47:20.843Z,18.42
2022-09-14T07:52:25.526Z,18.55
2022-09-14T07:57:54.631Z,18.78
2022-09-14T08:02:55.652Z,19.07
2022-09-14T08:07:58.862Z,19.27
2022-09-14T08:13:02.071Z,19.21
2022-09-14T08:18:05.276Z,19.10
2022-09-14T08:23:08.476Z,19.10
2022-09-14T08:28:14.159Z,19.18
2022-09-14T08:33:17.417Z,19.27
2022-09-14T08:38:20.578Z,19.48
2022-09-14T08:43:25.899Z,19.55
2022-09-14T08:48:36.176Z,19.60
2022-09-14T08:53:41.180Z,19.68
2022-09-14T08:58:50.498Z,19.74
2022-09-14T09:04:11.992Z,19.93
2022-09-14T09:09:28.884Z,20.09
2022-09-14T09:14:40.341Z,20.23
2022-09-14T09:20:25.313Z,20.30
2022-09-14T09:25:32.362Z,20.45
2022-09-14T09:30:36.113Z,20.56
2022-09-14T09:35:39.934Z,20.55
2022-09-14T09:40:53.893Z,20.70
2022-09-14T09:46:02.591Z,20.81
2022-09-14T09:51:27.651Z,20.84
2022-09-14T09:56:34.061Z,20.75
2022-09-14T10:01:37.444Z,20.73
2022-09-14T10:06:49.405Z,20.76
2022-09-14T10:12:04.795Z,20.83
2022-09-14T10:17:22.503Z,20.96
2022-09-14T10:22:31.956Z,21.22
2022-09-14T10:27:57.314Z,21.27
2022-09-14T10:33:05.746Z,21.30
2022-09-14T10:38:36.508Z,21.15
2022-09-14T10:43:57.657Z,21.00
2022-09-14T10:49:25.048Z,21.01
2022-09-14T10:54:49.277Z,20.89
2022-09-14T10:59:55.962Z,21.01
2022-09-14T11:05:13.258Z,21.22
2022-09-14T11:10:31.284Z,21.38
2022-09-14T11:16:08.994Z,21.48
2022-09-14T11:21:42.074Z,21.39
2022-09-14T11:27:09.671Z,21.15
2022-09-14T11:32:21.833Z,21.11
2022-09-14T11:37:31.984Z,21.26
2022-09-14T11:42:49.611Z,21.27
2022-09-14T11:48:00.875Z,21.45
2022-09-14T11:53:08.003Z,21.59
2022-09-14T11:58:26.133Z,21.66
2022-09-14T12:03:54.689Z,21.83
2022-09-14T12:09:26.015Z,22.09
2022-09-14T12:14:36.947Z,22.42
2022-09-14T12:19:41.974Z,22.54
2022-09-14T12:24:45.450Z,22.61
2022-09-14T12:29:49.085Z,22.59
2022-09-14T12:35:31.254Z,22.69
2022-09-14T12:40:43.954Z,22.70
2022-09-14T12:45:52.571Z,22.62
2022-09-14T12:51:01.299Z,22.67
2022-09-14T12:56:06.107Z,22.89
2022-09-14T13:01:15.576Z,23.03
2022-09-14T13:06:19.772Z,23.15
2022-09-14T13:11:28.023Z,23.03
2022-09-14T13:16:40.038Z,22.85
2022-09-14T13:21:48.590Z,22.75
2022-09-14T13:26:53.172Z,22.72
2022-09-14T13:32:02.996Z,22.83
2022-09-14T13:37:16.751Z,23.09
2022-09-14T13:42:27.287Z,23.12
2022-09-14T13:47:36.792Z,22.66
2022-09-14T13:53:01.129Z,22.27
2022-09-14T13:58:24.588Z,22.01
2022-09-14T14:03:39.228Z,21.83
2022-09-14T14:09:06.488Z,21.77
2022-09-14T14:14:18.418Z,21.86
2022-09-14T14:19:31.316Z,22.02
2022-09-14T14:25:09.136Z,22.30
2022-09-14T14:30:15.489Z,22.44
2022-09-14T14:35:22.691Z,22.22
2022-09-14T14:40:32.466Z,21.86
2022-09-14T14:45:38.313Z,21.65
2022-09-14T14:50:41.747Z,21.51
2022-09-14T14:55:51.182Z,21.36
2022-09-14T15:01:21.486Z,21.29
2022-09-14T15:06:40.612Z,21.18
2022-09-14T15:11:58.489Z,20.93
2022-09-14T15:17:18.624Z,20.63
2022-09-14T15:22:58.676Z,20.40
2022-09-14T15:28:45.380Z,20.32
2022-09-14T15:34:02.009Z,20.22
2022-09-14T15:39:21.960Z,20.11
2022-09-14T15:44:41.557Z,19.95
2022-09-14T15:49:48.631Z,19.80
2022-09-14T15:54:54.312Z,19.67
2022-09-14T16:00:06.426Z,19.51
2022-09-14T16:05:19.785Z,19.36
2022-09-14T16:10:25.874Z,19.28
2022-09-14T16:15:35.093Z,19.21
2022-09-14T16:20:41.265Z,19.15
2022-09-14T16:25:46.301Z,19.10
2022-09-14T16:30:55.513Z,19.03
2022-09-14T16:36:07.519Z,18.88
2022-09-14T16:41:18.959Z,18.74
2022-09-14T16:46:31.078Z,18.63
2022-09-14T16:51:58.576Z,18.52
2022-09-14T16:57:31.416Z,18.36
2022-09-14T17:02:47.967Z,18.25
2022-09-14T17:07:55.532Z,18.13
2022-09-14T17:13:01.998Z,18.03
2022-09-14T17:18:08.974Z,17.93
2022-09-14T17:23:19.135Z,17.85
2022-09-14T17:28:30.420Z,17.76
2022-09-14T17:33:36.750Z,17.68
2022-09-14T17:38:55.970Z,17.62
2022-09-14T17:44:06.352Z,17.57
2022-09-14T17:49:23.338Z,17.51
2022-09-14T17:54:41.735Z,17.46
2022-09-14T18:00:24.792Z,17.39
2022-09-14T18:05:49.676Z,17.31
2022-09-14T18:17:37.740Z,17.20
2022-09-14T18:23:11.969Z,17.15
2022-09-14T18:28:54.438Z,17.11
2022-09-14T18:34:18.545Z,17.07
2022-09-14T18:39:22.990Z,17.03
2022-09-14T18:44:35.994Z,17.01
2022-09-14T18:50:15.531Z,16.98
2022-09-14T18:55:23.677Z,16.96
2022-09-14T19:00:38.009Z,16.95
2022-09-14T19:06:19.915Z,16.97
2022-09-14T19:11:45.088Z,16.98
2022-09-14T19:17:07.947Z,16.98
2022-09-14T19:22:27.061Z,16.96
2022-09-14T19:28:12.934Z,16.95
2022-09-14T19:33:34.119Z,16.94
2022-09-14T19:38:39.051Z,16.93
2022-09-14T19:43:45.895Z,16.90
2022-09-14T19:48:53.224Z,16.89
2022-09-14T19:53:59.249Z,16.88
2022-09-14T19:59:04.478Z,16.86
2022-09-14T20:04:09.533Z,16.85
2022-09-14T20:09:21.998Z,16.88
2022-09-14T20:14:26.450Z,16.88
2022-09-14T20:19:32.918Z,16.88
2022-09-14T20:24:37.314Z,16.93
2022-09-14T20:29:41.026Z,16.92
2022-09-14T20:34:44.756Z,16.92
2022-09-14T20:39:54.457Z,16.92
2022-09-14T20:44:58.000Z,16.90
2022-09-14T20:50:01.454Z,16.89
2022-09-14T20:55:05.739Z,16.88
2022-09-14T21:00:10.061Z,16.88
2022-09-14T21:05:13.532Z,16.91
2022-09-14T21:10:17.119Z,16.93
2022-09-14T21:15:24.175Z,16.94
2022-09-14T21:20:29.056Z,16.92
2022-09-14T21:25:33.361Z,16.91
2022-09-14T21:30:37.706Z,16.90
2022-09-14T21:35:40.861Z,16.91
2022-09-14T21:40:45.591Z,16.95
2022-09-14T21:45:49.346Z,16.97
2022-09-14T21:51:06.319Z,16.99
2022-09-14T21:56:13.553Z,17.01
2022-09-14T22:01:17.213Z,17.03
2022-09-14T22:06:23.185Z,17.02
2022-09-14T22:11:33.465Z,17.01
2022-09-14T22:16:38.002Z,17.01
2022-09-14T22:21:41.321Z,17.01
2022-09-14T22:26:45.507Z,16.99
2022-09-14T22:31:49.018Z,16.97
2022-09-14T22:36:56.852Z,16.94
2022-09-14T22:42:00.768Z,16.89
2022-09-14T22:47:04.025Z,16.84
2022-09-14T22:52:07.309Z,16.79
2022-09-14T22:57:10.577Z,16.74
2022-09-14T23:02:13.856Z,16.68
2022-09-14T23:07:22.616Z,16.64
2022-09-14T23:12:29.791Z,16.59
2022-09-14T23:17:35.940Z,16.55
2022-09-14T23:22:39.966Z,16.49
2022-09-14T23:27:43.155Z,16.44
2022-09-14T23:32:46.405Z,16.40
2022-09-14T23:37:50.484Z,16.36
2022-09-14T23:42:53.986Z,16.32
2022-09-14T23:47:57.878Z,16.26
2022-09-14T23:53:10.840Z,16.18
2022-09-14T23:58:15.445Z,16.11
